Time;durP1;ratioP1;P1;durP2;ratioP2;P2;SDS_P1;SDS_P2;PMS_P1;PMS_P2;Temp;Humidity;BMP_temperature;BMP_pressure;BME280_temperature;BME280_humidity;BME280_pressure;Samples;Min_cycle;Max_cycle;Signal;HPM_P1;HPM_P2
2022/12/30 00:00:56;;;;;;;19.90;4.28;;;7.40;64.20;;;;;;5050989;28;20884;-72
2022/12/30 00:03:21;;;;;;;22.60;4.13;;;7.40;64.70;;;;;;5051198;28;20377;-73
2022/12/30 00:05:47;;;;;;;16.43;3.60;;;7.30;64.90;;;;;;5050964;28;20388;-75
2022/12/30 00:10:57;;;;;;;16.63;3.50;;;7.20;66.00;;;;;;5065119;28;20412;-72
2022/12/30 00:33:07;;;;;;;26.52;4.28;;;7.30;65.00;;;;;;5054831;28;20416;-74
2022/12/30 00:35:35;;;;;;;15.20;3.80;;;7.30;64.80;;;;;;5054668;28;20858;-76
2022/12/30 00:38:01;;;;;;;18.73;4.60;;;7.20;65.10;;;;;;5054178;28;20385;-72
2022/12/30 00:40:26;;;;;;;19.95;4.40;;;7.20;65.40;;;;;;5053480;28;20416;-73
2022/12/30 00:43:10;;;;;;;17.15;3.58;;;7.20;65.40;;;;;;5055144;28;20389;-74
2022/12/30 00:45:38;;;;;;;18.95;4.00;;;7.20;65.30;;;;;;5056422;28;20384;-75
2022/12/30 00:56:18;;;;;;;24.90;4.45;;;7.20;65.70;;;;;;5065637;28;20395;-74
2022/12/30 00:58:43;;;;;;;19.33;4.50;;;7.20;66.10;;;;;;5053747;28;20381;-75
2022/12/30 01:01:09;;;;;;;15.03;4.10;;;7.10;66.00;;;;;;5053356;28;20547;-74
2022/12/30 01:03:34;;;;;;;20.13;4.10;;;7.20;65.70;;;;;;5053364;28;20403;-72
2022/12/30 01:06:08;;;;;;;21.53;4.67;;;7.10;65.80;;;;;;5053589;28;20488;-72
2022/12/30 01:08:34;;;;;;;20.90;3.93;;;7.10;66.10;;;;;;5053635;28;20414;-74
2022/12/30 01:11:04;;;;;;;23.60;4.27;;;7.00;67.00;;;;;;5053703;28;20390;-73
2022/12/30 01:13:29;;;;;;;21.05;4.55;;;7.10;66.40;;;;;;5052396;28;20386;-74
2022/12/30 01:15:55;;;;;;;18.48;4.20;;;7.20;66.20;;;;;;5053279;28;20390;-72
2022/12/30 01:18:20;;;;;;;17.90;4.20;;;7.10;66.70;;;;;;5053377;28;20417;-75
2022/12/30 01:20:46;;;;;;;18.17;4.63;;;7.10;66.80;;;;;;5053152;28;20401;-74
2022/12/30 01:23:11;;;;;;;18.95;4.18;;;7.00;67.20;;;;;;5052940;28;20378;-75
2022/12/30 01:25:39;;;;;;;19.80;3.70;;;7.00;67.50;;;;;;5053389;28;20377;-73
2022/12/30 01:28:05;;;;;;;20.63;4.65;;;7.10;66.40;;;;;;5053411;28;20446;-73
2022/12/30 01:30:31;;;;;;;17.67;4.40;;;7.00;67.00;;;;;;5055623;28;20424;-73
2022/12/30 01:32:56;;;;;;;17.40;4.30;;;6.90;66.90;;;;;;5061124;28;20472;-75
2022/12/30 01:35:22;;;;;;;21.23;4.33;;;6.80;68.80;;;;;;5068155;28;20395;-74
2022/12/30 01:37:47;;;;;;;29.87;5.23;;;6.90;68.00;;;;;;5056375;28;20400;-73
2022/12/30 01:40:13;;;;;;;20.53;4.40;;;6.90;67.30;;;;;;5054685;28;20408;-73
2022/12/30 01:42:40;;;;;;;19.10;4.10;;;7.00;67.10;;;;;;5056411;28;20457;-74
2022/12/30 01:45:17;;;;;;;20.60;3.60;;;7.00;66.70;;;;;;5058850;28;20920;-72
2022/12/30 01:47:56;;;;;;;21.58;4.30;;;7.20;64.50;;;;;;5058558;28;20388;-72
2022/12/30 01:50:48;;;;;;;23.83;4.40;;;7.10;64.90;;;;;;5060902;28;20408;-73
2022/12/30 01:53:18;;;;;;;22.52;4.60;;;7.00;66.10;;;;;;5051524;28;20397;-75
2022/12/30 01:56:04;;;;;;;16.43;3.63;;;6.90;67.00;;;;;;5054852;28;20452;-74
2022/12/30 01:58:34;;;;;;;22.98;4.78;;;6.90;67.00;;;;;;5054305;28;20715;-73
2022/12/30 02:01:00;;;;;;;23.23;4.10;;;6.90;67.70;;;;;;5053143;28;20447;-73
2022/12/30 02:03:33;;;;;;;22.90;4.50;;;6.90;67.00;;;;;;5062784;28;20386;-73
2022/12/30 02:05:59;;;;;;;19.63;4.32;;;6.90;67.90;;;;;;5054856;28;20385;-73
2022/12/30 02:08:25;;;;;;;27.23;4.80;;;7.00;67.20;;;;;;5053942;28;20373;-73
2022/12/30 02:10:53;;;;;;;19.02;4.20;;;6.90;68.10;;;;;;5065271;28;20808;-77
2022/12/30 02:13:20;;;;;;;27.45;5.03;;;6.80;69.20;;;;;;5051264;28;20389;-74
2022/12/30 02:16:21;;;;;;;18.45;4.38;;;6.70;69.00;;;;;;5054632;28;20475;-74
2022/12/30 02:19:17;;;;;;;19.27;4.18;;;6.60;70.80;;;;;;5068233;28;20408;-74
2022/12/30 02:21:50;;;;;;;17.70;4.28;;;6.60;71.40;;;;;;5065666;28;20438;-72
2022/12/30 02:24:43;;;;;;;22.38;4.50;;;6.60;72.60;;;;;;5079174;28;20398;-73
2022/12/30 02:27:36;;;;;;;21.88;5.10;;;6.50;72.40;;;;;;5075213;28;20709;-72
2022/12/30 02:30:05;;;;;;;20.35;4.55;;;6.40;73.80;;;;;;5071106;28;20479;-74
2022/12/30 02:32:52;;;;;;;18.30;4.50;;;6.40;74.50;;;;;;5072038;28;20383;-73
2022/12/30 02:35:22;;;;;;;21.80;4.55;;;6.50;73.20;;;;;;5071293;28;20856;-72
2022/12/30 02:38:02;;;;;;;18.70;5.18;;;6.40;73.70;;;;;;5071723;28;20403;-71
2022/12/30 02:46:23;;;;;;;19.30;3.97;;;6.60;71.70;;;;;;5071327;28;20391;-74
2022/12/30 02:48:50;;;;;;;22.20;4.43;;;6.80;69.90;;;;;;5071083;28;20415;-74
2022/12/30 02:54:01;;;;;;;23.08;5.10;;;6.60;70.30;;;;;;5071122;28;20864;-74
2022/12/30 02:56:27;;;;;;;23.42;5.60;;;6.70;70.90;;;;;;5071098;28;20427;-73
2022/12/30 03:03:57;;;;;;;14.50;4.05;;;6.60;70.80;;;;;;5071198;28;20471;-74
2022/12/30 03:05:17;;;;;;;19.23;4.38;;;6.40;73.50;;;;;;5059059;28;20430;-74
2022/12/30 03:08:10;;;;;;;21.58;4.20;;;6.30;75.10;;;;;;5071377;28;20375;-73
2022/12/30 03:11:17;;;;;;;20.55;5.90;;;6.30;76.10;;;;;;5070468;28;20395;-73
2022/12/30 03:13:48;;;;;;;19.30;4.03;;;6.40;75.20;;;;;;5071259;28;20857;-74
2022/12/30 03:16:33;;;;;;;20.87;4.30;;;6.40;75.40;;;;;;5071051;28;20851;-74
2022/12/30 03:19:02;;;;;;;19.58;5.03;;;6.30;75.60;;;;;;5070841;28;20872;-72
2022/12/30 03:21:33;;;;;;;18.55;5.15;;;6.30;75.10;;;;;;5070963;28;20403;-72
2022/12/30 03:27:04;;;;;;;21.10;4.10;;;6.20;78.30;;;;;;5079906;28;20378;-72
2022/12/30 03:29:49;;;;;;;19.50;5.40;;;6.20;77.80;;;;;;5078634;28;20384;-73
2022/12/30 03:32:16;;;;;;;18.80;5.07;;;6.20;77.40;;;;;;5072417;28;20477;-73
2022/12/30 03:34:42;;;;;;;25.00;6.45;;;6.30;76.90;;;;;;5070619;28;20392;-73
2022/12/30 03:37:20;;;;;;;24.50;5.22;;;6.10;78.10;;;;;;5069446;28;20477;-73
2022/12/30 03:39:52;;;;;;;21.73;4.35;;;6.00;79.60;;;;;;5070732;28;20384;-74
2022/12/30 03:42:19;;;;;;;24.75;5.68;;;6.00;80.20;;;;;;5070273;28;20767;-73
2022/12/30 03:44:45;;;;;;;21.45;4.88;;;6.00;80.90;;;;;;5070509;28;20748;-72
2022/12/30 03:47:12;;;;;;;22.58;4.72;;;5.90;81.30;;;;;;5070644;28;20883;-73
2022/12/30 03:49:40;;;;;;;16.98;4.35;;;5.90;81.70;;;;;;5070389;28;20384;-73
2022/12/30 03:52:06;;;;;;;22.05;5.18;;;5.80;82.90;;;;;;5070328;28;20421;-73
2022/12/30 03:54:32;;;;;;;27.52;6.55;;;5.80;83.20;;;;;;5073484;28;20476;-74
2022/12/30 03:56:57;;;;;;;18.93;4.13;;;5.80;84.60;;;;;;5074846;28;20396;-76
2022/12/30 03:59:23;;;;;;;29.10;5.93;;;5.70;85.20;;;;;;5074743;28;20429;-73
2022/12/30 04:01:48;;;;;;;27.77;5.70;;;5.70;86.60;;;;;;5073266;28;20892;-73
2022/12/30 04:04:14;;;;;;;19.90;4.70;;;5.70;86.90;;;;;;5075385;28;20445;-74
2022/12/30 04:06:40;;;;;;;26.40;6.80;;;5.80;86.40;;;;;;5083991;28;20383;-73
2022/12/30 04:09:05;;;;;;;23.03;4.43;;;5.90;83.50;;;;;;5080258;28;20889;-73
2022/12/30 04:11:31;;;;;;;22.90;6.77;;;5.90;83.90;;;;;;5074125;28;20470;-73
2022/12/30 04:13:56;;;;;;;23.67;5.57;;;5.80;86.00;;;;;;5072977;28;20400;-75
2022/12/30 04:16:22;;;;;;;25.23;6.30;;;5.80;84.90;;;;;;5074226;28;20467;-72
2022/12/30 04:18:47;;;;;;;26.40;6.27;;;5.70;86.90;;;;;;5074501;28;20414;-73
2022/12/30 04:21:13;;;;;;;18.70;5.10;;;5.70;87.80;;;;;;5073852;28;20552;-73
2022/12/30 04:23:39;;;;;;;20.73;6.23;;;5.70;86.80;;;;;;5074141;28;20379;-73
2022/12/30 04:26:04;;;;;;;27.00;6.13;;;5.80;84.80;;;;;;5074173;28;20390;-72
2022/12/30 04:28:30;;;;;;;21.43;5.73;;;5.70;87.60;;;;;;5074174;28;20475;-74
2022/12/30 04:30:55;;;;;;;23.43;6.20;;;5.60;87.40;;;;;;5074938;28;20444;-73
2022/12/30 04:33:21;;;;;;;18.30;5.83;;;5.40;88.00;;;;;;5075596;28;20511;-75
2022/12/30 04:35:47;;;;;;;22.13;5.60;;;5.30;89.20;;;;;;5080054;28;20383;-72
2022/12/30 04:38:12;;;;;;;23.77;6.07;;;5.20;90.70;;;;;;5081213;28;20384;-72
2022/12/30 04:40:38;;;;;;;20.03;5.33;;;5.20;92.80;;;;;;5081872;28;20446;-74
2022/12/30 04:43:03;;;;;;;18.40;5.83;;;5.10;94.40;;;;;;5084272;28;20388;-73
2022/12/30 04:45:29;;;;;;;23.53;6.30;;;5.10;94.90;;;;;;5083420;28;20387;-75
2022/12/30 04:47:54;;;;;;;17.33;4.32;;;5.10;96.10;;;;;;5072871;28;20876;-73
2022/12/30 04:50:20;;;;;;;22.33;6.28;;;5.10;95.70;;;;;;5073913;28;20869;-73
2022/12/30 04:52:46;;;;;;;27.48;5.72;;;5.00;96.40;;;;;;5073820;28;20752;-73
2022/12/30 04:55:11;;;;;;;23.60;6.20;;;5.00;97.20;;;;;;5072105;28;20888;-73
2022/12/30 04:57:37;;;;;;;28.90;7.20;;;5.00;98.00;;;;;;5073533;28;20471;-73
2022/12/30 05:00:05;;;;;;;27.92;5.03;;;5.00;99.30;;;;;;5072372;28;20633;-73
2022/12/30 05:02:31;;;;;;;21.27;5.85;;;5.00;98.00;;;;;;5073798;28;20756;-74
2022/12/30 05:04:56;;;;;;;19.45;5.30;;;4.90;98.20;;;;;;5072692;28;20376;-74
2022/12/30 05:07:22;;;;;;;26.92;5.55;;;4.90;99.90;;;;;;5074136;28;20411;-75
2022/12/30 05:09:48;;;;;;;28.25;6.90;;;5.00;99.90;;;;;;5085895;28;20492;-74
2022/12/30 05:12:14;;;;;;;27.08;6.32;;;4.90;99.90;;;;;;5086754;28;20387;-73
2022/12/30 05:14:40;;;;;;;27.67;7.10;;;4.90;99.90;;;;;;5085703;28;20881;-74
2022/12/30 05:17:05;;;;;;;20.02;6.03;;;5.00;99.90;;;;;;5075544;28;20510;-73
2022/12/30 05:19:31;;;;;;;31.60;6.28;;;5.00;99.90;;;;;;5073177;28;20399;-73
2022/12/30 05:21:56;;;;;;;20.37;6.60;;;5.00;99.90;;;;;;5073255;28;20403;-73
2022/12/30 05:27:06;;;;;;;22.42;6.20;;;5.00;99.90;;;;;;5082490;28;20481;-73
2022/12/30 05:29:32;;;;;;;25.70;6.57;;;5.00;99.90;;;;;;5078605;28;20420;-74
2022/12/30 05:31:57;;;;;;;19.60;6.10;;;5.00;99.90;;;;;;5079612;28;20387;-74
2022/12/30 05:34:23;;;;;;;25.50;6.73;;;5.00;99.90;;;;;;5071917;28;20795;-73
2022/12/30 05:36:48;;;;;;;24.97;5.00;;;5.00;99.90;;;;;;5073188;28;20467;-74
2022/12/30 05:39:14;;;;;;;24.47;6.10;;;5.10;99.90;;;;;;5073394;28;20388;-74
2022/12/30 05:41:40;;;;;;;24.13;5.27;;;5.10;99.90;;;;;;5073004;28;20404;-72
2022/12/30 05:44:05;;;;;;;23.83;7.33;;;5.10;99.90;;;;;;5071913;28;20391;-74
2022/12/30 05:46:31;;;;;;;24.73;6.83;;;5.00;99.90;;;;;;5074809;28;20737;-73
2022/12/30 05:48:57;;;;;;;21.37;6.60;;;5.00;99.90;;;;;;5082123;28;20391;-73
2022/12/30 05:51:23;;;;;;;24.58;6.70;;;5.10;99.90;;;;;;5081022;28;20390;-73
2022/12/30 05:53:48;;;;;;;21.67;6.10;;;5.20;99.90;;;;;;5089017;28;20387;-73
2022/12/30 05:56:14;;;;;;;22.57;6.23;;;5.10;99.90;;;;;;5092016;28;20396;-72
2022/12/30 05:58:40;;;;;;;22.17;7.37;;;5.20;99.90;;;;;;5092205;28;20391;-73
2022/12/30 06:01:06;;;;;;;26.58;6.60;;;5.20;99.90;;;;;;5086334;28;20403;-73
2022/12/30 06:03:32;;;;;;;26.95;5.40;;;5.10;99.90;;;;;;5077142;28;20392;-74
2022/12/30 06:06:00;;;;;;;23.15;6.38;;;5.20;99.90;;;;;;5076159;28;20387;-72
2022/12/30 06:08:25;;;;;;;21.58;5.88;;;5.20;99.90;;;;;;5073001;28;20384;-74
2022/12/30 06:10:51;;;;;;;27.57;6.67;;;5.20;99.90;;;;;;5072932;28;20450;-74
2022/12/30 06:13:17;;;;;;;23.63;5.57;;;5.20;99.90;;;;;;5072728;28;20432;-73
2022/12/30 06:15:42;;;;;;;18.67;4.90;;;5.20;98.80;;;;;;5072548;28;20395;-74
2022/12/30 06:18:08;;;;;;;25.30;6.23;;;5.20;98.60;;;;;;5070548;28;20480;-74
2022/12/30 06:20:34;;;;;;;26.37;6.17;;;5.30;99.90;;;;;;5073059;28;20399;-74
2022/12/30 06:22:59;;;;;;;23.25;6.20;;;5.30;98.40;;;;;;5070937;28;20383;-74
2022/12/30 06:25:25;;;;;;;20.20;6.33;;;5.30;99.50;;;;;;5071839;28;20387;-74
2022/12/30 06:27:51;;;;;;;22.63;5.73;;;5.30;99.90;;;;;;5071688;28;20391;-74
2022/12/30 06:30:17;;;;;;;23.30;7.13;;;5.40;98.70;;;;;;5072954;28;20474;-73
2022/12/30 06:32:42;;;;;;;16.02;5.07;;;5.30;99.80;;;;;;5073235;28;20384;-74
2022/12/30 06:35:09;;;;;;;25.58;5.25;;;5.30;98.10;;;;;;5074168;28;20414;-73
2022/12/30 06:37:35;;;;;;;25.10;6.10;;;5.40;97.10;;;;;;5074114;28;20388;-73
2022/12/30 06:40:00;;;;;;;19.07;5.60;;;5.40;97.20;;;;;;5083614;28;20461;-74
2022/12/30 06:42:26;;;;;;;22.87;5.63;;;5.40;96.40;;;;;;5081671;28;20398;-75
2022/12/30 06:44:51;;;;;;;23.80;5.60;;;5.50;95.80;;;;;;5071636;28;20388;-73
2022/12/30 06:47:17;;;;;;;19.90;5.40;;;5.50;94.10;;;;;;5071433;28;20831;-73
2022/12/30 06:49:43;;;;;;;20.97;6.07;;;5.40;95.50;;;;;;5071230;28;20386;-73
2022/12/30 06:52:08;;;;;;;24.23;6.15;;;5.40;95.10;;;;;;5069783;28;20434;-74
2022/12/30 06:54:34;;;;;;;23.17;5.35;;;5.50;94.40;;;;;;5071381;28;20391;-73
2022/12/30 06:56:59;;;;;;;20.40;5.80;;;5.40;95.20;;;;;;5071415;28;20380;-72
2022/12/30 06:59:25;;;;;;;18.42;5.20;;;5.50;97.40;;;;;;5073131;28;20450;-74
2022/12/30 07:01:51;;;;;;;21.80;5.90;;;5.50;95.40;;;;;;5074274;28;20414;-72
2022/12/30 07:04:16;;;;;;;23.87;6.80;;;5.50;95.30;;;;;;5083481;28;20384;-75
2022/12/30 07:06:42;;;;;;;19.00;5.47;;;5.40;97.60;;;;;;5078334;28;20856;-73
2022/12/30 07:09:08;;;;;;;22.53;5.70;;;5.40;98.20;;;;;;5074077;28;20538;-72
2022/12/30 07:11:33;;;;;;;19.57;5.10;;;5.50;98.90;;;;;;5071480;28;20383;-74
2022/12/30 07:13:59;;;;;;;21.33;6.17;;;5.60;95.40;;;;;;5069625;28;20404;-73
2022/12/30 07:16:25;;;;;;;22.43;6.13;;;5.50;95.80;;;;;;5071734;28;20382;-74
2022/12/30 07:18:52;;;;;;;18.58;5.10;;;5.60;96.60;;;;;;5071667;28;20765;-72
2022/12/30 07:21:19;;;;;;;24.50;5.80;;;5.60;94.50;;;;;;5071217;28;20415;-74
2022/12/30 07:23:44;;;;;;;25.73;6.15;;;5.70;95.80;;;;;;5070471;28;20388;-74
2022/12/30 07:26:10;;;;;;;21.38;5.35;;;5.80;94.30;;;;;;5071315;28;20552;-73
2022/12/30 07:28:35;;;;;;;25.08;6.30;;;5.80;92.40;;;;;;5075251;28;20389;-74
2022/12/30 07:31:01;;;;;;;20.55;5.72;;;5.80;92.00;;;;;;5077645;28;20453;-73
2022/12/30 07:33:27;;;;;;;23.50;6.13;;;5.80;92.50;;;;;;5076884;28;20395;-75
2022/12/30 07:35:52;;;;;;;18.53;5.77;;;5.90;92.20;;;;;;5080589;28;20379;-74
2022/12/30 07:38:18;;;;;;;21.73;5.23;;;5.90;91.60;;;;;;5082987;28;20414;-72
2022/12/30 07:40:43;;;;;;;16.60;5.10;;;5.90;90.10;;;;;;5077149;28;20407;-73
2022/12/30 07:43:09;;;;;;;16.83;5.37;;;5.90;90.60;;;;;;5078582;28;20387;-74
2022/12/30 07:45:35;;;;;;;23.20;6.20;;;6.00;89.50;;;;;;5080362;28;20402;-73
2022/12/30 07:48:01;;;;;;;16.38;5.55;;;5.90;90.70;;;;;;5078126;28;20452;-74
2022/12/30 07:50:26;;;;;;;19.10;5.30;;;5.90;89.90;;;;;;5074520;28;20859;-74
2022/12/30 07:52:52;;;;;;;21.80;5.50;;;6.00;89.30;;;;;;5074895;28;20394;-73
2022/12/30 07:55:18;;;;;;;16.70;6.70;;;6.00;89.80;;;;;;5074139;28;20380;-75
2022/12/30 07:57:43;;;;;;;17.00;5.07;;;6.00;88.70;;;;;;5074616;28;20386;-74
2022/12/30 08:00:09;;;;;;;16.60;6.30;;;6.10;88.70;;;;;;5074658;28;21198;-72
2022/12/30 08:02:36;;;;;;;21.90;5.60;;;6.10;88.70;;;;;;5074082;28;20405;-73
2022/12/30 08:05:01;;;;;;;20.05;5.97;;;6.10;87.50;;;;;;5074828;28;20380;-73
2022/12/30 08:07:27;;;;;;;17.90;5.60;;;6.20;86.60;;;;;;5073152;28;20402;-74
2022/12/30 08:09:52;;;;;;;19.38;5.40;;;6.20;85.40;;;;;;5075352;28;20383;-73
2022/12/30 08:12:18;;;;;;;12.27;5.35;;;6.30;87.00;;;;;;5073002;28;20390;-73
2022/12/30 08:14:44;;;;;;;15.05;4.57;;;6.30;89.00;;;;;;5074382;28;20398;-72
2022/12/30 08:17:09;;;;;;;14.27;4.15;;;6.40;85.90;;;;;;5074806;28;20391;-73
2022/12/30 08:19:35;;;;;;;16.67;5.40;;;6.50;84.90;;;;;;5079650;28;20382;-75
2022/12/30 08:22:00;;;;;;;12.85;4.10;;;6.50;84.20;;;;;;5077635;28;20395;-73
2022/12/30 08:24:26;;;;;;;11.07;4.30;;;6.50;84.80;;;;;;5074809;28;20387;-74
2022/12/30 08:26:51;;;;;;;17.15;4.72;;;6.50;85.10;;;;;;5074494;28;20805;-74
2022/12/30 08:29:17;;;;;;;12.40;4.45;;;6.60;86.10;;;;;;5073432;28;20466;-73
2022/12/30 08:31:49;;;;;;;13.35;4.40;;;6.70;84.20;;;;;;5073892;28;20737;-75
2022/12/30 08:34:18;;;;;;;17.33;5.00;;;6.80;82.60;;;;;;5074369;28;20424;-73
2022/12/30 08:36:44;;;;;;;12.45;4.50;;;6.80;81.50;;;;;;5074062;28;20376;-73
2022/12/30 08:39:10;;;;;;;17.15;4.78;;;6.90;80.00;;;;;;5073875;28;20394;-73
2022/12/30 08:41:38;;;;;;;15.80;4.65;;;7.00;79.70;;;;;;5072895;28;20403;-72
2022/12/30 08:44:05;;;;;;;16.23;4.70;;;7.00;79.10;;;;;;5073871;28;20376;-72
2022/12/30 08:46:33;;;;;;;16.87;4.77;;;7.10;77.90;;;;;;5074290;28;20953;-75
2022/12/30 08:48:59;;;;;;;12.43;4.63;;;7.30;76.90;;;;;;5085049;28;20888;-73
2022/12/30 08:51:25;;;;;;;15.20;4.90;;;7.30;74.80;;;;;;5080538;28;20407;-72
2022/12/30 08:53:50;;;;;;;10.93;4.00;;;7.40;74.90;;;;;;5073234;28;20479;-74
2022/12/30 08:56:24;;;;;;;14.40;5.07;;;7.40;72.70;;;;;;5074199;28;20399;-73
2022/12/30 08:58:51;;;;;;;13.85;3.90;;;7.40;73.20;;;;;;5073745;28;20928;-74
2022/12/30 09:01:18;;;;;;;17.15;4.90;;;7.50;71.30;;;;;;5073033;28;20529;-74
2022/12/30 09:03:45;;;;;;;14.23;4.80;;;7.60;73.10;;;;;;5072249;28;20437;-74
2022/12/30 09:06:12;;;;;;;17.27;4.60;;;7.60;71.70;;;;;;5075893;28;20387;-74
2022/12/30 09:08:38;;;;;;;22.10;4.93;;;7.70;71.10;;;;;;5091764;28;20391;-74
2022/12/30 09:11:11;;;;;;;14.57;3.85;;;7.80;69.30;;;;;;5081013;28;20399;-72
2022/12/30 09:16:10;;;;;;;12.25;4.25;;;8.10;67.10;;;;;;5071097;28;20423;-76
2022/12/30 09:18:36;;;;;;;14.03;4.10;;;8.20;66.30;;;;;;5072633;28;20483;-75
2022/12/30 09:21:03;;;;;;;11.17;3.90;;;8.20;66.40;;;;;;5072200;28;20408;-75
2022/12/30 09:23:29;;;;;;;15.32;3.85;;;8.30;65.50;;;;;;5072430;28;20383;-75
2022/12/30 09:25:55;;;;;;;8.95;3.60;;;8.30;63.50;;;;;;5054339;28;20383;-74
2022/12/30 09:28:20;;;;;;;62.90;26.80;;;8.40;63.10;;;;;;5072068;28;20858;-75
2022/12/30 09:30:46;;;;;;;25.73;11.73;;;8.50;63.80;;;;;;5054118;28;20487;-75
2022/12/30 09:33:12;;;;;;;35.57;15.40;;;8.60;62.10;;;;;;5071867;28;20384;-75
2022/12/30 09:35:37;;;;;;;14.10;5.33;;;8.80;62.90;;;;;;5072124;28;20383;-75
2022/12/30 09:38:03;;;;;;;14.60;5.00;;;8.80;59.80;;;;;;5072260;28;20390;-76
2022/12/30 09:40:46;;;;;;;12.00;4.70;;;8.80;59.70;;;;;;5071780;28;20431;-75
2022/12/30 09:43:28;;;;;;;13.27;4.72;;;8.90;59.60;;;;;;5071904;28;20609;-76
2022/12/30 09:46:14;;;;;;;10.85;4.13;;;9.00;59.60;;;;;;5054199;28;20388;-75
2022/12/30 09:48:44;;;;;;;14.07;3.80;;;9.00;59.40;;;;;;5071752;28;20384;-75
2022/12/30 09:51:21;;;;;;;12.70;3.80;;;9.00;56.60;;;;;;5071751;28;20450;-75
2022/12/30 09:54:04;;;;;;;12.10;3.53;;;9.00;57.30;;;;;;5072194;28;20391;-74
2022/12/30 09:56:36;;;;;;;10.40;3.95;;;9.10;56.30;;;;;;5071850;28;20379;-74
2022/12/30 09:59:16;;;;;;;10.70;3.88;;;9.30;55.20;;;;;;5072224;28;20387;-76
2022/12/30 10:01:45;;;;;;;11.88;3.75;;;9.40;55.40;;;;;;5071813;28;20908;-74
2022/12/30 10:04:16;;;;;;;9.32;3.70;;;9.50;55.20;;;;;;5071365;28;20471;-75
2022/12/30 10:06:49;;;;;;;9.07;3.45;;;9.60;53.80;;;;;;5071916;28;20382;-75
2022/12/30 10:09:52;;;;;;;13.30;4.20;;;9.70;53.50;;;;;;5071564;28;20376;-75
2022/12/30 10:12:36;;;;;;;11.87;3.50;;;9.80;53.50;;;;;;5071585;28;20384;-75
2022/12/30 10:15:03;;;;;;;9.90;3.67;;;9.90;51.20;;;;;;5071609;28;20383;-75
2022/12/30 10:17:43;;;;;;;12.55;3.58;;;10.10;50.00;;;;;;5071906;28;20388;-75
2022/12/30 10:20:42;;;;;;;8.90;3.20;;;10.20;49.20;;;;;;5071905;28;20415;-75
2022/12/30 10:23:32;;;;;;;11.82;3.70;;;10.30;47.90;;;;;;5069882;28;20489;-75
2022/12/30 10:26:18;;;;;;;16.20;3.20;;;10.50;48.30;;;;;;5071258;28;20391;-76
2022/12/30 10:28:48;;;;;;;8.77;2.50;;;10.60;46.40;;;;;;5071055;28;20538;-75
2022/12/30 10:31:20;;;;;;;14.63;3.25;;;10.70;44.70;;;;;;5071702;28;20390;-76
2022/12/30 10:33:48;;;;;;;7.97;2.63;;;10.80;43.60;;;;;;5071602;28;20398;-76
2022/12/30 10:36:37;;;;;;;13.80;3.38;;;10.70;43.80;;;;;;5072756;28;20836;-76
2022/12/30 10:39:16;;;;;;;12.57;3.50;;;10.80;44.60;;;;;;5055174;28;20479;-75
2022/12/30 10:42:06;;;;;;;10.40;2.80;;;10.80;43.70;;;;;;5070465;28;20858;-75
2022/12/30 10:44:51;;;;;;;8.45;2.60;;;10.70;43.70;;;;;;5070505;28;20379;-75
2022/12/30 10:47:30;;;;;;;8.15;2.53;;;10.80;42.80;;;;;;5070243;28;20770;-74
2022/12/30 10:50:22;;;;;;;8.73;2.63;;;10.70;42.90;;;;;;5070659;28;20733;-75
2022/12/30 10:52:48;;;;;;;8.25;2.90;;;10.70;42.70;;;;;;5070155;28;20396;-75
2022/12/30 10:55:25;;;;;;;16.92;3.60;;;10.60;44.30;;;;;;5070646;28;20387;-76
2022/12/30 10:58:04;;;;;;;10.40;2.90;;;10.70;44.20;;;;;;5070744;28;20929;-75
2022/12/30 11:00:37;;;;;;;10.48;2.97;;;10.70;43.60;;;;;;5070708;28;20400;-76
2022/12/30 11:03:12;;;;;;;11.55;2.80;;;10.60;44.50;;;;;;5069835;28;20390;-75
2022/12/30 11:05:38;;;;;;;12.88;3.35;;;10.60;43.50;;;;;;5071050;28;20404;-75
2022/12/30 11:08:17;;;;;;;13.18;3.25;;;10.60;43.70;;;;;;5070235;28;20376;-75
2022/12/30 11:10:42;;;;;;;9.00;3.08;;;10.50;45.30;;;;;;5070265;28;20748;-75
2022/12/30 11:15:58;;;;;;;8.75;2.70;;;10.50;45.00;;;;;;5070147;28;20407;-75
2022/12/30 11:18:29;;;;;;;7.20;2.30;;;10.50;44.40;;;;;;5052456;28;20407;-75
2022/12/30 11:20:57;;;;;;;6.25;2.50;;;10.50;44.00;;;;;;5070465;28;20399;-75
2022/12/30 11:23:29;;;;;;;10.02;2.67;;;10.40;43.60;;;;;;5070443;28;20387;-75
2022/12/30 11:25:56;;;;;;;8.05;3.00;;;10.50;44.20;;;;;;5070245;28;20720;-75
2022/12/30 11:28:34;;;;;;;11.52;3.90;;;10.40;44.80;;;;;;5069923;28;20383;-76
2022/12/30 11:31:15;;;;;;;10.20;2.28;;;10.50;45.20;;;;;;5070317;28;20380;-75
2022/12/30 11:33:53;;;;;;;8.07;2.90;;;10.50;44.10;;;;;;5070085;28;20380;-76
2022/12/30 11:36:31;;;;;;;10.57;2.97;;;10.40;44.50;;;;;;5070457;28;20383;-74
2022/12/30 11:39:10;;;;;;;7.55;3.17;;;10.40;43.90;;;;;;5070185;28;20380;-76
2022/12/30 11:41:47;;;;;;;9.10;3.20;;;10.40;44.60;;;;;;5069895;28;20939;-76
2022/12/30 11:44:18;;;;;;;10.80;3.33;;;10.50;44.20;;;;;;5070020;28;20435;-74
2022/12/30 11:46:47;;;;;;;6.50;2.60;;;10.40;45.00;;;;;;5070142;28;20725;-75
2022/12/30 11:49:38;;;;;;;8.05;2.60;;;10.40;45.00;;;;;;5069999;28;20433;-75
2022/12/30 11:52:03;;;;;;;9.57;2.70;;;10.50;43.00;;;;;;5069872;28;20392;-74
2022/12/30 11:54:37;;;;;;;7.73;2.77;;;10.50;43.50;;;;;;5070066;28;20379;-76
2022/12/30 11:57:17;;;;;;;6.97;2.90;;;10.50;42.80;;;;;;5070346;28;20502;-74
2022/12/30 11:59:45;;;;;;;7.97;2.92;;;10.50;44.10;;;;;;5071146;28;20387;-74
2022/12/30 12:02:37;;;;;;;7.63;2.72;;;10.50;43.30;;;;;;5070156;28;20400;-76
2022/12/30 12:05:22;;;;;;;8.07;3.20;;;10.50;42.90;;;;;;5047256;28;20478;-75
2022/12/30 12:07:50;;;;;;;8.63;3.40;;;10.50;43.30;;;;;;5070790;28;20810;-75
2022/12/30 12:10:24;;;;;;;8.90;3.90;;;10.40;43.70;;;;;;5070448;28;20437;-75
2022/12/30 12:13:03;;;;;;;10.20;3.47;;;10.40;44.20;;;;;;5070742;28;20717;-75
2022/12/30 12:15:36;;;;;;;10.60;2.97;;;10.40;43.80;;;;;;5073087;28;20475;-76
2022/12/30 12:18:14;;;;;;;8.38;2.90;;;10.40;43.80;;;;;;5078630;28;20745;-75
2022/12/30 12:21:01;;;;;;;8.35;3.38;;;10.40;43.70;;;;;;5083119;28;20426;-74
2022/12/30 12:24:03;;;;;;;9.95;3.00;;;10.30;43.80;;;;;;5079706;28;20387;-75
2022/12/30 12:26:35;;;;;;;6.95;3.08;;;10.30;45.30;;;;;;5057180;28;20410;-75
2022/12/30 12:29:01;;;;;;;8.63;2.60;;;10.30;45.40;;;;;;5074432;28;20437;-76
2022/12/30 12:31:35;;;;;;;5.45;2.55;;;10.40;43.40;;;;;;5073586;28;20896;-76
2022/12/30 12:34:22;;;;;;;7.93;3.50;;;10.40;45.10;;;;;;5073845;28;20512;-75
2022/12/30 12:37:06;;;;;;;9.60;3.10;;;10.50;43.50;;;;;;5074688;28;20389;-76
2022/12/30 12:39:34;;;;;;;6.13;2.97;;;10.40;43.10;;;;;;5075356;28;20731;-76
2022/12/30 12:42:13;;;;;;;9.57;3.33;;;10.40;43.80;;;;;;5073146;28;20395;-76
2022/12/30 12:45:18;;;;;;;11.90;3.00;;;10.40;43.70;;;;;;5073297;28;20468;-78
2022/12/30 12:48:08;;;;;;;9.98;2.67;;;10.50;43.30;;;;;;5073670;28;20740;-76
2022/12/30 12:51:07;;;;;;;13.65;3.45;;;10.50;43.40;;;;;;5073862;28;20460;-75
2022/12/30 12:53:36;;;;;;;9.20;3.00;;;10.50;43.00;;;;;;5072723;28;20472;-76
2022/12/30 12:56:25;;;;;;;9.30;3.15;;;10.60;43.10;;;;;;5073156;28;20424;-75
2022/12/30 12:59:24;;;;;;;6.40;3.00;;;10.60;42.20;;;;;;5073339;28;20768;-76
2022/12/30 13:02:04;;;;;;;8.02;2.60;;;10.60;42.40;;;;;;5073281;28;20712;-75
2022/12/30 13:05:20;;;;;;;9.05;3.00;;;10.70;42.00;;;;;;5072747;28;20694;-76
2022/12/30 13:07:56;;;;;;;8.07;3.15;;;10.70;44.00;;;;;;5031930;28;20744;-76
2022/12/30 13:10:43;;;;;;;8.30;2.90;;;10.70;43.60;;;;;;5073406;28;20388;-76
2022/12/30 13:13:11;;;;;;;5.75;2.70;;;10.60;43.50;;;;;;5072764;28;20394;-76
2022/12/30 13:15:42;;;;;;;9.70;3.58;;;10.60;45.70;;;;;;5072713;28;20457;-75
2022/12/30 13:18:18;;;;;;;7.60;2.70;;;10.50;48.40;;;;;;5072970;28;20762;-75
2022/12/30 13:20:56;;;;;;;10.95;3.35;;;10.40;51.50;;;;;;5074516;28;20400;-76
2022/12/30 13:23:39;;;;;;;7.65;2.60;;;10.30;54.50;;;;;;5075085;28;20804;-75
2022/12/30 13:26:05;;;;;;;7.90;2.90;;;10.20;56.00;;;;;;5074771;28;20463;-76
2022/12/30 13:28:33;;;;;;;6.72;2.90;;;10.10;58.50;;;;;;5073790;28;20394;-75
2022/12/30 13:31:17;;;;;;;9.47;2.70;;;10.00;60.60;;;;;;5072846;28;20685;-75
2022/12/30 13:34:03;;;;;;;10.68;3.00;;;9.90;63.40;;;;;;5072143;28;20387;-71
2022/12/30 13:36:53;;;;;;;9.57;2.90;;;9.90;65.00;;;;;;5072465;28;20856;-74
2022/12/30 13:39:55;;;;;;;7.10;2.87;;;9.90;67.10;;;;;;5072316;28;20907;-73
2022/12/30 13:43:02;;;;;;;9.63;3.20;;;9.80;69.60;;;;;;5072659;28;20423;-74
2022/12/30 13:45:42;;;;;;;8.07;2.95;;;9.70;74.60;;;;;;5059386;28;20790;-74
2022/12/30 13:48:17;;;;;;;9.98;3.90;;;9.70;73.00;;;;;;5070860;28;20399;-73
2022/12/30 13:50:44;;;;;;;9.52;4.00;;;9.60;74.80;;;;;;5070169;28;20747;-73
2022/12/30 13:53:28;;;;;;;8.35;3.40;;;9.70;77.30;;;;;;5070413;28;20775;-73
2022/12/30 13:55:53;;;;;;;9.20;3.50;;;9.80;78.20;;;;;;5071124;28;20792;-73
2022/12/30 13:58:32;;;;;;;9.75;3.13;;;9.80;75.50;;;;;;5071334;28;20529;-73
2022/12/30 14:01:19;;;;;;;7.50;2.90;;;9.80;77.50;;;;;;5071754;28;20399;-75